ADDS METAR Data INFO
IDs: Format: Raw Decoded Include TAF

Data at: 1904 UTC 23 Apr 2018

PHNL 231853Z 05012KT 10SM -RA FEW025 SCT040 SCT050 24/19 A3010 RMK AO2 RAE15B41 SLP192 P0000 T02390189
PHNL 231753Z 06010KT 10SM -RA FEW025 SCT042 24/18 A3009 RMK AO2 RAB35 SLP187 P0000 60000 T02390183 10244 20228 53016
PHNL 231653Z 06009KT 10SM FEW025 FEW048 23/18 A3007 RMK AO2 RAB38E52 SLP181 P0000 T02330178
PHNL 231553Z 05012KT 10SM FEW025 FEW045 23/17 A3005 RMK AO2 SLP175 T02330172
PHNL 231453Z 05007G15KT 10SM FEW024 FEW036 23/17 A3004 RMK AO2 SLP171 T02280167 55008
PHNL 231353Z 06014G21KT 10SM FEW025 FEW045 23/17 A3003 RMK AO2 SLP170 T02330172
PHNL 231253Z 06011KT 10SM FEW024 FEW045 23/17 A3004 RMK AO2 SLP171 T02330172
PHNL 231153Z 06015G21KT 10SM FEW022 FEW046 23/17 A3006 RMK AO2 SLP180 60000 T02330172 10250 20228 58016
PHNL 231053Z 06011KT 10SM FEW022 SCT050 24/18 A3008 RMK AO2 SLP186 T02390178
PHNL 230953Z 06011KT 10SM FEW023 SCT044 23/18 A3010 RMK AO2 RAE01 SLP191 P0000 T02330178 402890228
PHNL 230853Z 07011KT 10SM -RA FEW026 SCT039 BKN049 23/18 A3011 RMK AO2 RAB27 SLP196 P0000 60000 T02330183 51012
PHNL 230753Z 06013G19KT 10SM FEW026 FEW046 SCT060 24/18 A3011 RMK AO2 RAB16E45 SLP196 P0000 T02390183
PHNL 230653Z 05011KT 10SM FEW029 SCT046 BKN055 24/18 A3010 RMK AO2 RAB29E43 SLP191 P0000 T02440183
PHNL 230553Z 05009KT 10SM FEW028 FEW043 25/17 A3008 RMK AO2 SLP185 T02500172 10289 20244 53023
PHNL 230453Z 05010KT 10SM FEW024 FEW042 SCT065 SCT130 25/17 A3005 RMK AO2 SLP176 T02500172
PHNL 230353Z 04013KT 10SM FEW026 FEW040 SCT085 BKN180 27/18 A3003 RMK AO2 SLP168 T02670178
PHNL 230253Z 06012KT 10SM FEW025 FEW046 SCT090 BKN200 27/18 A3001 RMK AO2 SLP162 T02720178 55010
PHNL 230153Z 07014G20KT 10SM FEW026 SCT060 SCT120 BKN240 28/17 A3001 RMK AO2 SLP162 T02830167
PHNL 230053Z 06014G21KT 10SM FEW026 SCT041 SCT050 BKN170 28/18 A3002 RMK AO2 SLP165 T02780178
PHNL 222353Z 06018KT 10SM FEW028 SCT038 BKN045 BKN160 28/17 A3004 RMK AO2 SLP172 T02830172 10289 20250 58013
PHNL 222253Z 08015G23KT 10SM FEW029 SCT038 BKN045 BKN160 28/17 A3006 RMK AO2 SLP180 T02780172
PHNL 222153Z 05013G19KT 10SM FEW028 SCT038 BKN045 BKN160 28/18 A3007 RMK AO2 SLP182 VCSH N-NE-E T02780178
PHNL 222053Z 06013G23KT 10SM FEW028 SCT038 SCT045 BKN200 28/18 A3008 RMK AO2 SLP185 VCSH N-NE T02780178 58000
PHNL 221953Z 06013G20KT 10SM FEW028 SCT040 SCT050 BKN200 28/18 A3009 RMK AO2 SLP189 T02780178
PHNL 221853Z VRB03KT 10SM FEW027 SCT038 SCT050 BKN250 27/19 A3008 RMK AO2 SLP186 VCSH N-NE T02670189
PHNL 221753Z 07011KT 10SM FEW022 SCT038 SCT050 BKN250 25/19 A3008 RMK AO2 SLP186 VCSH N-NE-E T02500194 10250 20239 51010
PHNL 221653Z 05013KT 10SM FEW022 SCT040 BKN050 24/19 A3007 RMK AO2 SLP183 T02440189
PHNL 221553Z 05012KT 10SM FEW020 BKN050 24/19 A3006 RMK AO2 SLP179 T02390189
PHNL 221453Z 06008KT 10SM FEW020 SCT050 24/19 A3005 RMK AO2 SLP175 T02390189 55009
PHNL 221353Z 05010KT 10SM FEW020 BKN050 24/19 A3004 RMK AO2 SLP173 T02390189
PHNL 221253Z 05011KT 10SM FEW022 SCT049 24/19 A3006 RMK AO2 SLP178 T02390194
PHNL 221153Z 05011KT 10SM FEW022 FEW040 24/19 A3008 RMK AO2 SLP185 60002 70002 T02390194 10250 20233 58015
PHNL 221053Z 06008KT 10SM FEW025 FEW042 24/19 A3010 RMK AO2 RAB08E18 SLP190 P0000 T02390194
PHNL 220953Z 09009KT 10SM FEW026 SCT043 BKN060 24/21 A3011 RMK AO2 SLP195 VCSH NE-E T02390206 402890228
PHNL 220853Z 05009KT 10SM SCT032 BKN060 BKN075 24/21 A3012 RMK AO2 SLP200 60002 T02390206 51012
PHNL 220753Z 06009KT 10SM FEW024 BKN037 BKN049 24/21 A3012 RMK AO2 RAE16 SLP199 P0002 T02440206